Clark Center, Illinois
Current Conditions -  °F | °C
As of 2:35 PM on Friday 19 Dec 2014 (Local Time) from KPRG Reporting Station
Overcast Overcast  
Wind Chill: 34°   Ceiling: 2800
Heat Index: 34°   Visibility: 10mi
Dew Point: 25°   Wind: 0mph
Humidity: 72%   Direction: NA
Pressure: 30.3"   Gusts: NA
Location:  39.4361°N, 87.7043°W
Report Text: KPRG 192035Z AUTO 00000KT 10SM OVC028 01/M04 A3030 RMK AO2 T00091037
Loading
Personal Weather Stations






























Interactive Weather Map New forecast layout! Learn more

10-Day Weather Forecast

Advertisements
Track Severe Weather on mobile